createdAt,value
2018-08-03T00:00:40.324Z,47.60
2018-08-03T00:03:09.063Z,47.50
2018-08-03T00:05:37.762Z,47.60
2018-08-03T00:08:06.827Z,47.70
2018-08-03T00:10:35.576Z,47.90
2018-08-03T00:13:04.374Z,48.40
2018-08-03T00:15:33.433Z,48.90
2018-08-03T00:18:02.427Z,49.00
2018-08-03T00:20:31.131Z,49.10
2018-08-03T00:23:00.131Z,49.30
2018-08-03T00:25:28.902Z,49.30
2018-08-03T00:27:57.630Z,49.20
2018-08-03T00:30:26.502Z,49.30
2018-08-03T00:32:55.215Z,49.00
2018-08-03T00:35:23.914Z,48.80
2018-08-03T00:37:52.735Z,48.70
2018-08-03T00:40:21.486Z,48.60
2018-08-03T00:42:50.239Z,49.30
2018-08-03T00:45:18.964Z,48.70
2018-08-03T00:47:47.714Z,49.50
2018-08-03T00:50:16.498Z,49.00
2018-08-03T00:52:45.239Z,49.20
2018-08-03T00:55:14.191Z,49.50
2018-08-03T00:57:43.074Z,50.30
2018-08-03T01:00:11.781Z,50.80
2018-08-03T01:02:40.538Z,51.90
2018-08-03T01:05:09.256Z,52.70
2018-08-03T01:07:38.009Z,52.50
2018-08-03T01:10:06.721Z,52.50
2018-08-03T01:12:35.473Z,51.90
2018-08-03T01:15:05.065Z,51.30
2018-08-03T01:20:02.307Z,50.70
2018-08-03T01:22:34.635Z,50.50
2018-08-03T01:25:03.823Z,50.50
2018-08-03T01:27:32.662Z,50.40
2018-08-03T01:30:01.418Z,50.50
2018-08-03T01:32:30.139Z,50.70
2018-08-03T01:34:59.110Z,51.20
2018-08-03T01:37:27.824Z,51.90
2018-08-03T01:39:56.508Z,52.40
2018-08-03T01:42:25.243Z,52.70
2018-08-03T01:44:53.946Z,52.60
2018-08-03T01:47:22.802Z,52.30
2018-08-03T01:52:19.933Z,52.20
2018-08-03T01:54:48.642Z,51.60
2018-08-03T01:59:45.862Z,52.00
2018-08-03T02:02:14.559Z,51.20
2018-08-03T02:04:43.354Z,50.90
2018-08-03T02:07:12.094Z,51.00
2018-08-03T02:12:09.313Z,51.10
2018-08-03T02:14:38.010Z,51.10
2018-08-03T02:17:06.726Z,50.70
2018-08-03T02:24:32.634Z,50.80
2018-08-03T02:27:01.421Z,50.50
2018-08-03T02:29:30.177Z,50.50
2018-08-03T02:31:58.873Z,50.30
2018-08-03T02:34:27.584Z,50.40
2018-08-03T02:36:56.297Z,50.40
2018-08-03T02:39:25.008Z,50.00
2018-08-03T02:46:50.638Z,49.60
2018-08-03T02:49:19.337Z,49.60
2018-08-03T02:51:48.347Z,49.80
2018-08-03T02:54:17.051Z,49.70
2018-08-03T02:56:45.755Z,49.80
2018-08-03T02:59:14.559Z,49.80
2018-08-03T03:01:43.290Z,50.30
2018-08-03T03:04:11.989Z,50.10
2018-08-03T03:06:40.711Z,50.50
2018-08-03T03:09:10.685Z,50.40
2018-08-03T03:14:07.914Z,50.00
2018-08-03T03:16:36.719Z,50.10
2018-08-03T03:19:05.438Z,49.90
2018-08-03T03:21:34.167Z,49.80
2018-08-03T03:24:02.862Z,49.70
2018-08-03T03:26:31.577Z,49.80
2018-08-03T03:29:00.412Z,49.80
2018-08-03T03:31:29.187Z,49.90
2018-08-03T03:33:57.931Z,49.60
2018-08-03T03:36:26.678Z,50.00
2018-08-03T03:38:55.390Z,49.80
2018-08-03T03:41:24.155Z,49.70
2018-08-03T03:43:53.107Z,49.80
2018-08-03T03:48:50.243Z,50.00
2018-08-03T03:51:19.047Z,49.90
2018-08-03T03:53:47.759Z,49.90
2018-08-03T03:58:44.975Z,50.30
2018-08-03T04:01:13.695Z,50.50
2018-08-03T04:03:42.402Z,50.50
2018-08-03T04:08:39.655Z,51.20
2018-08-03T04:11:08.386Z,50.40
2018-08-03T04:13:38.011Z,50.30
2018-08-03T04:16:06.818Z,50.30
2018-08-03T04:18:35.543Z,50.20
2018-08-03T04:23:32.783Z,50.00
2018-08-03T04:26:01.503Z,50.00
2018-08-03T04:30:58.647Z,50.00
2018-08-03T04:33:27.367Z,50.20
2018-08-03T04:35:56.099Z,50.60
2018-08-03T04:38:24.886Z,51.30
2018-08-03T04:40:53.619Z,51.80
2018-08-03T04:45:50.832Z,52.20
2018-08-03T04:48:19.688Z,52.10
2018-08-03T04:53:16.894Z,51.30
2018-08-03T04:55:45.623Z,51.40
2018-08-03T04:58:14.334Z,52.00
2018-08-03T05:00:43.195Z,52.60
2018-08-03T05:03:11.898Z,52.70
2018-08-03T05:08:09.331Z,53.00
2018-08-03T05:10:38.124Z,53.30
2018-08-03T05:13:06.834Z,53.60
2018-08-03T05:15:35.788Z,53.20
2018-08-03T05:18:04.474Z,52.50
2018-08-03T05:20:33.202Z,52.70
2018-08-03T05:23:01.948Z,51.60
2018-08-03T05:25:30.648Z,50.80
2018-08-03T05:27:59.716Z,51.70
2018-08-03T05:30:28.478Z,51.20
2018-08-03T05:32:57.198Z,51.10
2018-08-03T05:35:25.934Z,51.00
2018-08-03T05:37:54.691Z,50.80
2018-08-03T05:40:23.418Z,50.50
2018-08-03T05:45:20.647Z,50.20
2018-08-03T05:50:24.634Z,50.20
2018-08-03T05:52:53.410Z,50.00
2018-08-03T05:57:51.014Z,50.70
2018-08-03T06:00:19.818Z,50.50
2018-08-03T06:02:49.055Z,50.20
2018-08-03T06:05:18.123Z,49.40
2018-08-03T06:07:46.935Z,49.50
2018-08-03T06:10:15.708Z,49.50
2018-08-03T06:12:44.427Z,49.20
2018-08-03T06:15:13.218Z,49.50
2018-08-03T06:17:41.926Z,50.90
2018-08-03T06:20:12.132Z,49.20
2018-08-03T06:22:41.225Z,49.30
2018-08-03T06:27:39.022Z,49.10
2018-08-03T06:32:38.109Z,49.10
2018-08-03T06:35:06.922Z,49.30
2018-08-03T06:40:04.426Z,48.90
2018-08-03T06:42:33.301Z,48.60
2018-08-03T06:45:02.091Z,49.40
2018-08-03T06:47:30.986Z,49.20
2018-08-03T06:49:59.912Z,49.00
2018-08-03T06:52:28.755Z,48.80
2018-08-03T06:57:26.284Z,48.80
2018-08-03T06:59:55.178Z,48.90
2018-08-03T07:02:24.014Z,49.30
2018-08-03T07:04:52.947Z,49.50
2018-08-03T07:07:21.917Z,49.50
2018-08-03T07:09:50.811Z,49.30
2018-08-03T07:12:19.771Z,48.90
2018-08-03T07:14:48.759Z,49.00
2018-08-03T07:17:17.646Z,49.20
2018-08-03T07:19:46.577Z,49.20
2018-08-03T07:22:15.532Z,49.20
2018-08-03T07:24:44.442Z,49.00
2018-08-03T07:29:41.797Z,49.20
2018-08-03T07:32:10.624Z,48.90
2018-08-03T07:34:39.502Z,47.80
2018-08-03T07:37:08.459Z,48.10
2018-08-03T07:39:37.372Z,48.00
2018-08-03T07:44:35.337Z,47.50
2018-08-03T07:47:04.159Z,47.80
2018-08-03T07:52:01.648Z,47.70
2018-08-03T07:54:30.538Z,47.50
2018-08-03T07:59:28.002Z,46.80
2018-08-03T08:04:25.375Z,46.70
2018-08-03T08:06:54.290Z,46.20
2018-08-03T08:09:23.176Z,46.50
2018-08-03T08:11:52.150Z,46.50
2018-08-03T08:16:49.597Z,46.50
2018-08-03T08:19:18.484Z,46.40
2018-08-03T08:21:47.386Z,46.30
2018-08-03T08:24:16.252Z,46.60
2018-08-03T08:26:45.300Z,46.50
2018-08-03T08:29:14.199Z,46.20
2018-08-03T08:31:43.286Z,46.50
2018-08-03T08:34:12.107Z,46.20
2018-08-03T08:36:40.924Z,45.90
2018-08-03T08:39:12.368Z,46.10
2018-08-03T08:41:42.375Z,45.50
2018-08-03T08:44:12.131Z,44.60
2018-08-03T08:46:41.399Z,44.80
2018-08-03T08:49:10.336Z,45.20
2018-08-03T08:51:39.187Z,45.20
2018-08-03T08:54:08.020Z,45.20
2018-08-03T08:56:36.922Z,45.30
2018-08-03T08:59:05.804Z,44.70
2018-08-03T09:01:34.735Z,44.20
2018-08-03T09:04:03.619Z,44.20
2018-08-03T09:06:32.467Z,43.80
2018-08-03T09:09:01.362Z,43.90
2018-08-03T09:11:30.300Z,43.80
2018-08-03T09:13:59.756Z,44.10
2018-08-03T09:16:29.796Z,43.70
2018-08-03T09:18:58.855Z,43.40
2018-08-03T09:21:27.635Z,43.10
2018-08-03T09:23:56.643Z,43.40
2018-08-03T09:26:25.547Z,43.30
2018-08-03T09:28:54.451Z,42.90
2018-08-03T09:31:30.090Z,42.90
2018-08-03T09:33:58.895Z,42.90
2018-08-03T09:36:27.946Z,43.00
2018-08-03T09:38:56.828Z,43.20
2018-08-03T09:41:25.904Z,43.10
2018-08-03T09:43:54.872Z,43.20
2018-08-03T09:46:23.855Z,42.50
2018-08-03T09:48:52.903Z,42.30
2018-08-03T09:51:21.763Z,42.50
2018-08-03T09:53:50.724Z,42.60
2018-08-03T09:58:48.394Z,42.70
2018-08-03T10:01:17.406Z,42.60
2018-08-03T10:03:46.291Z,42.80
2018-08-03T10:06:15.286Z,42.90
2018-08-03T10:08:44.474Z,42.70
2018-08-03T10:11:13.550Z,42.90
2018-08-03T10:13:42.781Z,42.60
2018-08-03T10:16:11.794Z,42.50
2018-08-03T10:18:40.666Z,42.70
2018-08-03T10:23:38.135Z,42.50
2018-08-03T10:28:35.534Z,42.70
2018-08-03T10:31:08.127Z,42.40
2018-08-03T10:33:37.026Z,42.50
2018-08-03T10:36:05.979Z,42.30
2018-08-03T10:38:34.867Z,41.70
2018-08-03T10:41:03.784Z,41.30
2018-08-03T10:43:32.696Z,41.60
2018-08-03T10:46:01.640Z,41.20
2018-08-03T10:48:31.177Z,41.20
2018-08-03T10:51:00.084Z,41.80
2018-08-03T10:53:28.985Z,41.90
2018-08-03T10:55:57.878Z,41.80
2018-08-03T10:58:26.869Z,41.00
2018-08-03T11:00:55.827Z,40.30
2018-08-03T11:03:25.095Z,39.90
2018-08-03T11:05:54.004Z,40.10
2018-08-03T11:08:22.851Z,40.70
2018-08-03T11:10:51.869Z,40.80
2018-08-03T11:13:20.704Z,40.70
2018-08-03T11:15:49.685Z,40.60
2018-08-03T11:18:18.578Z,40.40
2018-08-03T11:20:47.463Z,40.40
2018-08-03T11:23:16.257Z,40.30
2018-08-03T11:25:45.198Z,40.60
2018-08-03T11:28:14.094Z,40.10
2018-08-03T11:30:43.079Z,40.30
2018-08-03T11:33:11.911Z,40.40
2018-08-03T11:35:40.757Z,40.20
2018-08-03T11:38:09.645Z,39.60
2018-08-03T11:40:40.059Z,40.00
2018-08-03T11:43:08.953Z,39.90
2018-08-03T11:45:37.758Z,39.90
2018-08-03T11:48:06.943Z,40.00
2018-08-03T11:50:35.841Z,39.80
2018-08-03T11:53:05.607Z,39.70
2018-08-03T11:55:34.530Z,39.80
2018-08-03T11:58:03.463Z,39.80
2018-08-03T12:00:32.284Z,39.80
2018-08-03T12:03:01.167Z,39.80
2018-08-03T12:05:30.915Z,39.40
2018-08-03T12:08:00.291Z,38.50
2018-08-03T12:10:29.288Z,38.70
2018-08-03T12:12:58.192Z,38.90
2018-08-03T12:15:28.188Z,39.00
2018-08-03T12:17:57.027Z,39.30
2018-08-03T12:20:25.892Z,39.40
2018-08-03T12:22:54.758Z,39.40
2018-08-03T12:25:23.638Z,39.20
2018-08-03T12:30:21.179Z,39.00
2018-08-03T12:32:50.117Z,39.40
2018-08-03T12:35:18.930Z,39.40
2018-08-03T12:37:47.906Z,39.40
2018-08-03T12:40:16.762Z,39.70
2018-08-03T12:42:45.694Z,38.90
2018-08-03T12:45:14.648Z,38.80
2018-08-03T12:47:43.556Z,38.90
2018-08-03T12:50:12.471Z,38.30
2018-08-03T12:52:41.517Z,38.40
2018-08-03T12:55:10.383Z,38.20
2018-08-03T12:57:39.248Z,38.50
2018-08-03T13:00:08.664Z,38.60
2018-08-03T13:02:37.596Z,38.60
2018-08-03T13:05:07.078Z,38.40
2018-08-03T13:07:35.970Z,38.60
2018-08-03T13:10:05.136Z,38.80
2018-08-03T13:12:34.255Z,38.40
2018-08-03T13:15:03.128Z,38.50
2018-08-03T13:17:32.145Z,38.60
2018-08-03T13:20:00.992Z,38.40
2018-08-03T13:24:58.467Z,38.50
2018-08-03T13:27:27.507Z,38.40
2018-08-03T13:29:57.191Z,38.30
2018-08-03T13:32:26.121Z,37.90
2018-08-03T13:34:55.008Z,38.10
2018-08-03T13:37:23.959Z,37.90
2018-08-03T13:39:52.809Z,37.90
2018-08-03T13:42:21.691Z,37.90
2018-08-03T13:44:50.608Z,37.80
2018-08-03T13:49:51.015Z,37.90
2018-08-03T13:52:19.858Z,37.90
2018-08-03T13:57:17.434Z,38.20
2018-08-03T13:59:46.360Z,38.40
2018-08-03T15:24:17.584Z,37.60
2018-08-03T15:26:46.449Z,38.60
2018-08-03T15:29:15.428Z,37.50
2018-08-03T15:31:44.362Z,37.40
2018-08-03T15:34:13.364Z,36.90
2018-08-03T15:36:42.567Z,36.70
2018-08-03T15:39:11.723Z,36.70
2018-08-03T15:41:40.809Z,36.90
2018-08-03T15:44:09.637Z,36.50
2018-08-03T15:46:38.555Z,36.20
2018-08-03T15:49:07.486Z,36.40
2018-08-03T15:51:36.386Z,36.20
2018-08-03T15:54:05.333Z,36.30
2018-08-03T15:56:34.275Z,36.40
2018-08-03T15:59:03.152Z,36.80
2018-08-03T16:01:31.994Z,36.60
2018-08-03T16:04:01.280Z,36.40
2018-08-03T16:06:30.192Z,36.40
2018-08-03T16:08:59.173Z,36.60
2018-08-03T16:11:28.055Z,36.70
2018-08-03T16:13:57.288Z,37.10
2018-08-03T16:16:26.231Z,36.90
2018-08-03T16:18:55.176Z,36.40
2018-08-03T16:21:23.953Z,36.10
2018-08-03T16:23:52.837Z,36.20
2018-08-03T16:26:21.719Z,36.40
2018-08-03T16:28:50.866Z,35.50
2018-08-03T16:31:19.764Z,35.50
2018-08-03T16:33:48.645Z,35.30
2018-08-03T16:36:17.576Z,35.10
2018-08-03T16:38:46.469Z,35.40
2018-08-03T16:41:15.535Z,35.60
2018-08-03T16:43:44.580Z,35.50
2018-08-03T16:46:13.428Z,35.30
2018-08-03T16:48:42.354Z,35.40
2018-08-03T16:51:11.195Z,35.00
2018-08-03T16:53:40.070Z,35.00
2018-08-03T16:56:08.918Z,35.50
2018-08-03T16:58:37.774Z,35.50
2018-08-03T17:01:06.719Z,35.20
2018-08-03T17:03:35.586Z,35.30
2018-08-03T17:06:04.424Z,35.40
2018-08-03T17:11:01.932Z,35.80
2018-08-03T17:13:30.804Z,35.50
2018-08-03T17:15:59.656Z,35.10
2018-08-03T17:18:28.591Z,35.40
2018-08-03T17:20:57.523Z,35.00
2018-08-03T17:23:26.371Z,35.10
2018-08-03T17:25:55.174Z,34.90
2018-08-03T17:28:23.988Z,34.80
2018-08-03T17:30:53.177Z,34.30
2018-08-03T17:33:22.052Z,34.20
2018-08-03T17:35:50.816Z,34.30
2018-08-03T17:43:22.528Z,35.20
2018-08-03T17:45:51.378Z,34.40
2018-08-03T17:48:20.244Z,33.80
2018-08-03T17:50:49.109Z,33.60
2018-08-03T17:53:17.994Z,33.80
2018-08-03T17:55:46.976Z,34.30
2018-08-03T17:58:15.914Z,34.60
2018-08-03T18:00:44.858Z,35.10
2018-08-03T18:03:13.796Z,35.10
2018-08-03T18:05:43.566Z,35.30
2018-08-03T18:08:12.459Z,35.70
2018-08-03T18:10:42.084Z,35.80
2018-08-03T18:13:10.961Z,35.10
2018-08-03T18:15:39.808Z,34.50
2018-08-03T18:18:08.792Z,34.70
2018-08-03T18:20:37.735Z,34.80
2018-08-03T18:23:06.644Z,34.70
2018-08-03T18:25:35.499Z,34.90
2018-08-03T18:28:04.452Z,34.90
2018-08-03T18:30:33.346Z,34.70
2018-08-03T18:33:02.188Z,35.20
2018-08-03T18:35:31.084Z,35.20
2018-08-03T18:37:59.962Z,35.30
2018-08-03T18:40:28.922Z,35.50
2018-08-03T18:42:57.763Z,35.80
2018-08-03T18:45:26.674Z,35.80
2018-08-03T18:47:55.586Z,36.10
2018-08-03T18:50:24.423Z,36.30
2018-08-03T18:55:22.026Z,36.70
2018-08-03T18:57:50.955Z,36.40
2018-08-03T19:00:19.800Z,36.60
2018-08-03T19:02:48.729Z,36.90
2018-08-03T19:05:17.727Z,36.90
2018-08-03T19:07:46.660Z,37.00
2018-08-03T19:12:44.043Z,37.30
2018-08-03T19:15:12.944Z,37.50
2018-08-03T19:17:41.876Z,37.60
2018-08-03T19:20:10.763Z,37.70
2018-08-03T19:22:39.548Z,37.80
2018-08-03T19:25:08.601Z,38.00
2018-08-03T19:32:34.999Z,38.30
2018-08-03T19:35:03.727Z,38.50
2018-08-03T19:37:32.819Z,38.60
2018-08-03T19:40:01.513Z,38.60
2018-08-03T19:42:30.231Z,38.70
2018-08-03T19:44:59.004Z,43.00
2018-08-03T19:47:27.722Z,44.90
2018-08-03T19:49:56.558Z,44.80
2018-08-03T19:52:25.347Z,44.50
2018-08-03T19:54:54.159Z,44.30
2018-08-03T19:59:51.452Z,44.20
2018-08-03T20:02:20.279Z,43.90
2018-08-03T20:04:48.999Z,43.80
2018-08-03T20:09:46.442Z,42.80
2018-08-03T20:12:15.151Z,43.30
2018-08-03T20:14:43.927Z,43.40
2018-08-03T20:17:12.743Z,43.30
2018-08-03T20:22:14.235Z,43.10
2018-08-03T20:24:43.007Z,43.10
2018-08-03T20:29:40.247Z,43.20
2018-08-03T20:32:08.977Z,43.10
2018-08-03T20:34:38.170Z,43.20
2018-08-03T20:37:06.916Z,43.30
2018-08-03T20:39:35.686Z,43.20
2018-08-03T20:42:04.556Z,43.10
2018-08-03T20:44:33.263Z,43.10
2018-08-03T20:47:01.995Z,43.20
2018-08-03T20:49:30.751Z,43.20
2018-08-03T20:51:59.522Z,43.60
2018-08-03T20:54:28.217Z,43.20
2018-08-03T20:56:56.927Z,43.30
2018-08-03T20:59:25.960Z,43.30
2018-08-03T21:01:54.692Z,43.50
2018-08-03T21:04:23.415Z,43.60
2018-08-03T21:06:53.070Z,43.60
2018-08-03T21:09:21.879Z,43.50
2018-08-03T21:11:50.685Z,43.80
2018-08-03T21:14:19.442Z,43.90
2018-08-03T21:16:48.155Z,43.90
2018-08-03T21:19:16.891Z,43.90
2018-08-03T21:21:45.626Z,43.90
2018-08-03T21:24:14.563Z,44.00
2018-08-03T21:26:43.579Z,44.00
2018-08-03T21:29:12.318Z,43.90
2018-08-03T21:31:41.095Z,43.90
2018-08-03T21:34:09.839Z,43.60
2018-08-03T21:36:38.546Z,43.70
2018-08-03T21:39:08.737Z,44.40
2018-08-03T21:41:37.619Z,44.30
2018-08-03T21:44:06.411Z,44.00
2018-08-03T21:46:35.140Z,43.80
2018-08-03T21:49:03.966Z,43.60
2018-08-03T21:51:33.496Z,43.20
2018-08-03T21:54:02.470Z,43.40
2018-08-03T21:58:59.661Z,43.40
2018-08-03T22:01:28.386Z,43.30
2018-08-03T22:03:57.147Z,43.40
2018-08-03T22:06:25.976Z,42.90
2018-08-03T22:08:54.710Z,43.30
2018-08-03T22:11:23.978Z,43.50
2018-08-03T22:13:52.678Z,43.40
2018-08-03T22:16:21.431Z,43.20
2018-08-03T22:18:50.229Z,43.40
2018-08-03T22:21:18.941Z,43.70
2018-08-03T22:25:12.220Z,43.50
2018-08-03T22:27:40.950Z,43.10
2018-08-03T22:30:09.683Z,44.00
2018-08-03T22:32:38.500Z,44.20
2018-08-03T22:35:07.107Z,44.00
2018-08-03T22:37:35.938Z,44.30
2018-08-03T22:40:04.666Z,44.40
2018-08-03T22:42:33.359Z,44.50
2018-08-03T22:45:02.082Z,44.40
2018-08-03T22:47:30.794Z,44.30
2018-08-03T22:49:59.554Z,44.20
2018-08-03T22:52:28.250Z,44.20
2018-08-03T22:54:57.035Z,44.30
2018-08-03T22:57:25.784Z,45.00
2018-08-03T22:59:54.502Z,44.20
2018-08-03T23:02:23.319Z,44.10
2018-08-03T23:04:52.031Z,44.00
2018-08-03T23:07:20.763Z,44.00
2018-08-03T23:09:50.689Z,44.00
2018-08-03T23:12:19.395Z,44.00
2018-08-03T23:14:48.318Z,43.90
2018-08-03T23:17:17.102Z,44.00
2018-08-03T23:19:45.817Z,44.00
2018-08-03T23:22:14.891Z,44.00
2018-08-03T23:24:43.630Z,44.10
2018-08-03T23:27:12.427Z,44.40
2018-08-03T23:29:41.454Z,44.50
2018-08-03T23:34:38.671Z,44.30
2018-08-03T23:37:07.404Z,44.20
2018-08-03T23:42:04.619Z,44.70
2018-08-03T23:44:33.300Z,44.30
2018-08-03T23:47:02.010Z,44.60
2018-08-03T23:49:30.805Z,44.50
2018-08-03T23:51:59.520Z,44.50
2018-08-03T23:56:57.534Z,44.60
